createdAt,value
2019-05-20T00:01:13.646Z,23.93
2019-05-20T00:03:41.782Z,23.77
2019-05-20T00:06:10.152Z,24.67
2019-05-20T00:08:38.699Z,23.00
2019-05-20T00:11:07.354Z,26.90
2019-05-20T00:13:35.894Z,24.87
2019-05-20T00:16:04.136Z,24.37
2019-05-20T00:18:32.608Z,25.80
2019-05-20T00:21:00.736Z,27.47
2019-05-20T00:23:29.169Z,28.00
2019-05-20T00:25:57.909Z,28.77
2019-05-20T00:28:26.165Z,27.67
2019-05-20T00:30:54.602Z,26.13
2019-05-20T00:33:22.739Z,28.57
2019-05-20T00:35:51.110Z,28.30
2019-05-20T00:38:19.280Z,29.37
2019-05-20T00:40:47.530Z,30.00
2019-05-20T00:43:15.692Z,29.83
2019-05-20T00:45:43.868Z,31.33
2019-05-20T00:48:12.046Z,29.43
2019-05-20T00:50:40.692Z,30.67
2019-05-20T00:53:08.868Z,29.37
2019-05-20T00:55:39.005Z,27.77
2019-05-20T00:58:07.159Z,32.97
2019-05-20T01:00:35.720Z,33.43
2019-05-20T01:03:04.086Z,33.40
2019-05-20T01:05:32.917Z,35.73
2019-05-20T01:08:01.042Z,33.50
2019-05-20T01:10:29.342Z,33.63
2019-05-20T01:12:57.469Z,33.10
2019-05-20T01:15:25.813Z,33.80
2019-05-20T01:17:54.046Z,32.17
2019-05-20T01:20:22.578Z,39.77
2019-05-20T01:22:50.792Z,36.77
2019-05-20T01:25:20.430Z,36.00
2019-05-20T01:27:48.674Z,33.73
2019-05-20T01:30:19.185Z,37.43
2019-05-20T01:32:47.347Z,36.87
2019-05-20T01:35:15.566Z,36.63
2019-05-20T01:37:43.862Z,36.23
2019-05-20T01:40:13.281Z,38.37
2019-05-20T01:42:41.864Z,39.93
2019-05-20T01:45:11.105Z,39.73
2019-05-20T01:47:39.322Z,41.17
2019-05-20T01:50:09.191Z,39.60
2019-05-20T01:52:37.463Z,40.87
2019-05-20T01:55:06.284Z,39.07
2019-05-20T01:57:34.455Z,40.30
2019-05-20T02:00:04.152Z,39.70
2019-05-20T02:02:32.321Z,43.57
2019-05-20T02:05:00.820Z,44.20
2019-05-20T02:07:28.992Z,41.60
2019-05-20T02:09:57.101Z,41.37
2019-05-20T02:12:25.362Z,39.77
2019-05-20T02:15:06.074Z,42.73
2019-05-20T02:17:34.443Z,41.03
2019-05-20T02:20:03.449Z,41.73
2019-05-20T02:22:31.754Z,43.47
2019-05-20T02:25:00.642Z,40.47
2019-05-20T02:27:28.877Z,40.07
2019-05-20T02:29:57.068Z,43.47
2019-05-20T02:32:25.226Z,40.93
2019-05-20T02:34:53.947Z,41.20
2019-05-20T02:37:22.799Z,43.90
2019-05-20T02:39:50.946Z,43.90
2019-05-20T02:42:19.235Z,43.93
2019-05-20T02:44:47.853Z,44.93
2019-05-20T02:47:16.437Z,42.13
2019-05-20T02:49:44.822Z,44.13
2019-05-20T02:52:13.022Z,43.37
2019-05-20T02:54:41.581Z,43.10
2019-05-20T02:57:09.719Z,41.10
2019-05-20T02:59:37.855Z,43.23
2019-05-20T03:02:06.100Z,43.50
2019-05-20T03:04:34.312Z,41.60
2019-05-20T03:07:02.550Z,42.63
2019-05-20T03:09:31.548Z,38.57
2019-05-20T03:11:59.748Z,41.43
2019-05-20T03:14:28.224Z,38.07
2019-05-20T03:16:56.479Z,35.53
2019-05-20T03:19:24.905Z,42.77
2019-05-20T03:21:53.443Z,39.83
2019-05-20T03:24:22.808Z,38.30
2019-05-20T03:26:51.175Z,40.60
2019-05-20T03:29:20.218Z,41.10
2019-05-20T03:31:48.672Z,47.17
2019-05-20T03:34:43.160Z,44.70
2019-05-20T03:36:48.167Z,42.60
2019-05-20T03:39:16.819Z,47.30
2019-05-20T03:41:44.966Z,44.07
2019-05-20T03:44:13.214Z,41.90
2019-05-20T03:46:41.437Z,53.80
2019-05-20T03:49:10.095Z,40.93
2019-05-20T03:51:38.924Z,49.13
2019-05-20T03:54:07.408Z,45.93
2019-05-20T03:56:35.953Z,45.23
2019-05-20T03:59:04.676Z,44.47
2019-05-20T04:01:33.119Z,45.90
2019-05-20T04:04:02.619Z,46.60
2019-05-20T04:06:30.874Z,45.13
2019-05-20T04:08:59.551Z,50.67
2019-05-20T04:11:27.816Z,47.77
2019-05-20T04:13:56.285Z,46.03
2019-05-20T04:16:24.485Z,50.00
2019-05-20T04:18:54.171Z,49.07
2019-05-20T04:21:23.114Z,47.80
2019-05-20T04:23:51.362Z,46.83
2019-05-20T04:26:20.198Z,52.47
2019-05-20T04:28:48.905Z,48.43
2019-05-20T04:31:17.183Z,52.93
2019-05-20T04:33:45.505Z,52.93
2019-05-20T04:36:13.784Z,56.60
2019-05-20T04:38:41.977Z,57.27
2019-05-20T04:41:10.670Z,62.13
2019-05-20T04:43:38.817Z,64.70
2019-05-20T04:46:07.042Z,63.30
2019-05-20T04:48:35.212Z,60.10
2019-05-20T04:51:03.698Z,63.03
2019-05-20T04:53:31.853Z,62.13
2019-05-20T04:56:00.668Z,64.63
2019-05-20T04:58:28.896Z,64.07
2019-05-20T05:00:58.499Z,64.33
2019-05-20T05:03:27.153Z,60.90
2019-05-20T05:05:55.519Z,71.30
2019-05-20T05:08:24.385Z,63.57
2019-05-20T05:10:52.908Z,62.73
2019-05-20T05:13:23.162Z,62.37
2019-05-20T05:15:51.398Z,60.27
2019-05-20T05:18:20.183Z,59.13
2019-05-20T05:20:48.432Z,58.70
2019-05-20T05:23:16.828Z,58.50
2019-05-20T05:25:45.724Z,56.87
2019-05-20T05:28:14.313Z,57.73
2019-05-20T05:30:45.056Z,54.43
2019-05-20T05:33:13.321Z,56.03
2019-05-20T05:35:52.769Z,56.83
2019-05-20T05:38:12.168Z,55.43
2019-05-20T05:40:40.351Z,58.80
2019-05-20T05:43:08.982Z,50.87
2019-05-20T05:45:37.749Z,48.47
2019-05-20T05:48:06.578Z,49.13
2019-05-20T05:50:34.767Z,50.87
2019-05-20T05:53:03.854Z,48.73
2019-05-20T05:55:32.334Z,44.77
2019-05-20T05:58:00.506Z,48.53
2019-05-20T06:00:29.024Z,46.80
2019-05-20T06:02:57.169Z,45.43
2019-05-20T06:05:25.716Z,43.77
2019-05-20T06:07:53.930Z,49.20
2019-05-20T06:10:22.277Z,47.23
2019-05-20T06:12:51.226Z,48.53
2019-05-20T06:15:38.013Z,46.97
2019-05-20T06:18:06.427Z,44.80
2019-05-20T06:20:35.218Z,48.10
2019-05-20T06:23:03.455Z,43.53
2019-05-20T06:25:31.843Z,44.07
2019-05-20T06:28:00.210Z,40.33
2019-05-20T06:30:42.044Z,43.93
2019-05-20T06:33:10.740Z,41.07
2019-05-20T06:35:39.324Z,41.00
2019-05-20T06:38:12.013Z,39.13
2019-05-20T06:40:40.220Z,40.37
2019-05-20T06:43:08.483Z,40.30
2019-05-20T06:45:36.808Z,39.83
2019-05-20T06:48:05.228Z,42.87
2019-05-20T06:50:33.524Z,43.30
2019-05-20T06:53:01.878Z,45.90
2019-05-20T06:55:30.203Z,39.73
2019-05-20T06:57:58.564Z,39.27
2019-05-20T07:00:36.722Z,39.30
2019-05-20T07:03:06.487Z,41.93
2019-05-20T07:05:34.674Z,39.00
2019-05-20T07:08:02.888Z,35.63
2019-05-20T07:10:31.110Z,34.67
2019-05-20T07:13:00.214Z,37.73
2019-05-20T07:15:28.356Z,39.67
2019-05-20T07:17:57.184Z,37.57
2019-05-20T07:20:25.537Z,37.10
2019-05-20T07:22:56.244Z,37.20
2019-05-20T07:25:24.079Z,33.03
2019-05-20T07:27:52.293Z,34.33
2019-05-20T07:30:20.992Z,37.00
2019-05-20T07:32:49.419Z,33.13
2019-05-20T07:35:29.808Z,30.17
2019-05-20T07:37:48.631Z,29.03
2019-05-20T07:40:29.835Z,33.07
2019-05-20T07:42:59.141Z,30.63
2019-05-20T07:45:32.117Z,29.67
2019-05-20T07:48:01.236Z,26.00
2019-05-20T07:50:29.885Z,26.17
2019-05-20T07:53:00.548Z,23.83
2019-05-20T07:55:40.989Z,26.34
2019-05-20T07:58:11.648Z,25.37
2019-05-20T08:00:40.539Z,25.50
2019-05-20T08:03:09.084Z,22.93
2019-05-20T08:05:37.243Z,25.03
2019-05-20T08:08:05.956Z,23.17
2019-05-20T08:10:34.207Z,21.70
2019-05-20T08:13:02.689Z,21.23
2019-05-20T08:15:30.924Z,20.30
2019-05-20T08:17:59.665Z,22.50
2019-05-20T08:20:28.012Z,22.33
2019-05-20T08:22:56.257Z,23.00
2019-05-20T08:25:24.763Z,19.90
2019-05-20T08:27:53.411Z,21.90
2019-05-20T08:30:32.644Z,19.23
2019-05-20T08:33:01.563Z,19.80
2019-05-20T08:35:29.820Z,20.33
2019-05-20T08:37:58.191Z,21.13
2019-05-20T08:40:26.440Z,20.27
2019-05-20T08:42:54.697Z,20.57
2019-05-20T08:45:22.885Z,21.83
2019-05-20T08:47:51.123Z,21.90
2019-05-20T08:50:19.740Z,23.53
2019-05-20T08:52:47.917Z,21.87
2019-05-20T08:55:16.820Z,21.67
2019-05-20T08:57:44.976Z,19.97
2019-05-20T09:00:23.289Z,22.47
2019-05-20T09:02:51.417Z,20.53
2019-05-20T09:05:19.642Z,22.97
2019-05-20T09:08:02.459Z,23.67
2019-05-20T09:10:20.423Z,22.60
2019-05-20T09:12:49.152Z,21.33
2019-05-20T09:15:22.164Z,20.70
2019-05-20T09:17:50.533Z,18.77
2019-05-20T09:20:19.440Z,23.47
2019-05-20T09:26:19.571Z,17.47
2019-05-20T09:28:48.066Z,20.80
2019-05-20T09:31:16.608Z,20.63
2019-05-20T09:33:45.820Z,18.20
2019-05-20T09:36:14.170Z,20.33
2019-05-20T09:38:42.353Z,19.00
2019-05-20T09:41:10.739Z,18.97
2019-05-20T09:43:39.050Z,20.00
2019-05-20T09:46:08.639Z,17.57
2019-05-20T09:48:37.314Z,18.83
2019-05-20T09:51:05.499Z,20.43
2019-05-20T09:53:33.839Z,18.90
2019-05-20T09:56:02.789Z,17.27
2019-05-20T09:58:33.310Z,17.70
2019-05-20T10:01:02.465Z,15.43
2019-05-20T10:03:31.086Z,16.90
2019-05-20T10:06:01.255Z,18.73
2019-05-20T10:08:38.914Z,17.13
2019-05-20T10:11:00.557Z,18.37
2019-05-20T10:13:29.924Z,16.87
2019-05-20T10:15:58.544Z,18.67
2019-05-20T10:18:36.587Z,17.47
2019-05-20T10:20:57.102Z,18.47
2019-05-20T10:23:26.067Z,19.10
2019-05-20T10:25:54.314Z,21.30
2019-05-20T10:28:22.455Z,19.00
2019-05-20T10:30:51.415Z,17.93
2019-05-20T10:33:19.537Z,18.83
2019-05-20T10:35:48.332Z,20.40
2019-05-20T10:38:16.472Z,18.23
2019-05-20T10:40:44.874Z,16.77
2019-05-20T10:43:13.101Z,17.67
2019-05-20T10:45:41.845Z,17.70
2019-05-20T10:48:10.005Z,16.80
2019-05-20T10:50:38.557Z,17.47
2019-05-20T10:53:06.711Z,18.03
2019-05-20T10:55:35.378Z,18.10
2019-05-20T10:58:03.626Z,15.17
2019-05-20T11:00:31.810Z,17.70
2019-05-20T11:03:00.261Z,16.93
2019-05-20T11:05:28.625Z,17.03
2019-05-20T11:07:57.993Z,16.63
2019-05-20T11:10:26.489Z,17.63
2019-05-20T11:12:54.698Z,15.47
2019-05-20T11:15:23.265Z,16.90
2019-05-20T11:17:51.394Z,16.17
2019-05-20T11:20:19.722Z,17.40
2019-05-20T11:22:47.869Z,17.30
2019-05-20T11:25:16.489Z,15.87
2019-05-20T11:27:44.659Z,17.30
2019-05-20T11:30:13.951Z,16.57
2019-05-20T11:32:42.599Z,16.50
2019-05-20T11:35:11.582Z,16.90
2019-05-20T11:37:40.352Z,17.63
2019-05-20T11:40:10.185Z,19.73
2019-05-20T11:42:38.920Z,17.00
2019-05-20T11:45:09.969Z,15.33
2019-05-20T11:47:38.122Z,16.33
2019-05-20T11:50:06.714Z,15.80
2019-05-20T11:52:35.199Z,18.07
2019-05-20T11:55:03.771Z,16.93
2019-05-20T11:57:32.000Z,15.80
2019-05-20T12:00:00.267Z,15.83
2019-05-20T12:02:28.694Z,18.07
2019-05-20T12:04:56.869Z,14.40
2019-05-20T12:07:25.197Z,15.23
2019-05-20T12:09:53.470Z,14.47
2019-05-20T12:12:22.050Z,14.47
2019-05-20T12:14:50.484Z,14.23
2019-05-20T12:17:18.607Z,14.27
2019-05-20T12:19:46.887Z,13.60
2019-05-20T12:22:15.157Z,14.63
2019-05-20T12:24:43.328Z,13.87
2019-05-20T12:27:11.544Z,14.53
2019-05-20T12:29:40.498Z,15.33
2019-05-20T12:32:08.972Z,13.00
2019-05-20T12:34:37.345Z,12.90
2019-05-20T12:37:05.519Z,13.97
2019-05-20T12:39:34.149Z,13.23
2019-05-20T12:42:02.583Z,14.30
2019-05-20T12:44:30.861Z,13.87
2019-05-20T12:46:59.055Z,14.80
2019-05-20T12:49:27.505Z,13.03
2019-05-20T12:51:56.019Z,14.20
2019-05-20T12:54:24.210Z,13.27
2019-05-20T12:56:52.443Z,13.22
2019-05-20T12:59:20.887Z,12.90
2019-05-20T13:01:49.141Z,13.33
2019-05-20T13:04:17.364Z,11.90
2019-05-20T13:06:45.543Z,10.83
2019-05-20T13:09:15.080Z,13.00
2019-05-20T13:11:43.263Z,12.63
2019-05-20T13:14:11.619Z,12.70
2019-05-20T13:16:39.859Z,12.10
2019-05-20T13:19:08.022Z,12.83
2019-05-20T13:21:36.182Z,13.30
2019-05-20T13:24:05.573Z,12.37
2019-05-20T13:26:34.919Z,12.80
2019-05-20T13:29:03.676Z,10.57
2019-05-20T13:31:32.187Z,11.33
2019-05-20T13:34:00.671Z,11.03
2019-05-20T13:36:29.581Z,10.90
2019-05-20T13:38:57.988Z,13.17
2019-05-20T13:41:26.277Z,11.57
2019-05-20T13:43:54.403Z,11.40
2019-05-20T13:46:22.569Z,12.87
2019-05-20T13:48:50.837Z,12.60
2019-05-20T13:51:19.513Z,12.17
2019-05-20T13:53:47.666Z,12.33
2019-05-20T13:56:16.029Z,11.60
2019-05-20T13:58:44.263Z,10.90
2019-05-20T14:01:13.330Z,13.10
2019-05-20T14:03:42.013Z,10.87
2019-05-20T14:06:11.014Z,10.40
2019-05-20T14:08:39.355Z,10.03
2019-05-20T14:11:07.865Z,9.23
2019-05-20T14:13:36.377Z,9.00
2019-05-20T14:16:04.675Z,11.80
2019-05-20T14:18:32.846Z,9.90
2019-05-20T14:21:01.350Z,7.83
2019-05-20T14:23:29.471Z,8.40
2019-05-20T14:25:57.686Z,8.50
2019-05-20T14:28:26.317Z,8.80
2019-05-20T14:30:54.479Z,10.07
2019-05-20T14:33:22.735Z,9.37
2019-05-20T14:35:51.006Z,8.43
2019-05-20T14:38:19.264Z,9.87
2019-05-20T14:40:47.864Z,9.10
2019-05-20T14:43:16.705Z,11.47
2019-05-20T14:45:45.073Z,13.20
2019-05-20T14:48:14.690Z,8.03
2019-05-20T14:50:43.392Z,7.97
2019-05-20T14:53:11.944Z,8.97
2019-05-20T14:55:42.611Z,9.13
2019-05-20T14:58:11.161Z,6.83
2019-05-20T15:00:39.765Z,8.97
2019-05-20T15:03:08.057Z,7.37
2019-05-20T15:05:36.818Z,8.73
2019-05-20T15:08:05.111Z,8.53
2019-05-20T15:10:33.872Z,8.10
2019-05-20T15:13:02.082Z,9.20
2019-05-20T15:15:30.800Z,9.57
2019-05-20T15:17:59.466Z,8.53
2019-05-20T15:20:27.628Z,7.20
2019-05-20T15:22:55.766Z,8.87
2019-05-20T15:25:24.325Z,7.67
2019-05-20T15:27:52.651Z,9.43
2019-05-20T15:30:20.931Z,10.73
2019-05-20T15:32:49.134Z,10.13
2019-05-20T15:35:17.550Z,10.87
2019-05-20T15:37:46.039Z,11.33
2019-05-20T15:40:14.469Z,10.00
2019-05-20T15:42:42.720Z,13.57
2019-05-20T15:45:11.876Z,10.03
2019-05-20T15:47:40.063Z,9.07
2019-05-20T15:50:10.401Z,9.43
2019-05-20T15:52:39.110Z,7.83
2019-05-20T15:55:07.840Z,7.77
2019-05-20T15:57:35.943Z,7.43
2019-05-20T16:00:05.515Z,8.17
2019-05-20T16:02:33.667Z,9.43
2019-05-20T16:05:01.917Z,7.90
2019-05-20T16:07:30.035Z,6.80
2019-05-20T16:09:58.477Z,10.87
2019-05-20T16:12:27.190Z,7.63
2019-05-20T16:14:57.395Z,7.97
2019-05-20T16:17:27.452Z,9.10
2019-05-20T16:19:55.568Z,8.47
2019-05-20T16:22:23.837Z,8.80
2019-05-20T16:24:52.200Z,7.30
2019-05-20T16:27:22.638Z,7.67
2019-05-20T16:30:05.604Z,6.70
2019-05-20T16:32:21.668Z,20.33
2019-05-20T16:34:50.180Z,7.53
2019-05-20T16:37:18.481Z,8.40
2019-05-20T16:39:46.710Z,8.57
2019-05-20T16:42:15.125Z,9.37
2019-05-20T16:44:47.458Z,11.07
2019-05-20T16:47:15.619Z,12.10
2019-05-20T16:49:43.771Z,7.20
2019-05-20T16:52:13.047Z,8.90
2019-05-20T16:54:41.574Z,7.93
2019-05-20T16:57:10.645Z,8.07
2019-05-20T16:59:40.224Z,7.63
2019-05-20T17:02:08.842Z,7.20
2019-05-20T17:04:36.993Z,7.60
2019-05-20T17:07:05.774Z,10.03
2019-05-20T17:09:33.904Z,9.93
2019-05-20T17:12:02.295Z,9.40
2019-05-20T17:14:30.514Z,10.43
2019-05-20T17:16:58.727Z,10.33
2019-05-20T17:19:27.511Z,10.77
2019-05-20T17:21:56.145Z,10.33
2019-05-20T17:24:24.591Z,9.43
2019-05-20T17:26:53.048Z,10.53
2019-05-20T17:29:21.187Z,12.43
2019-05-20T17:31:49.607Z,10.67
2019-05-20T17:34:17.792Z,10.93
2019-05-20T17:36:46.710Z,10.23
2019-05-20T17:39:16.194Z,11.40
2019-05-20T17:41:45.109Z,12.50
2019-05-20T17:44:13.298Z,11.73
2019-05-20T17:46:41.461Z,11.40
2019-05-20T17:49:10.151Z,14.13
2019-05-20T17:51:38.818Z,15.10
2019-05-20T17:54:07.301Z,11.67
2019-05-20T17:56:35.857Z,12.87
2019-05-20T17:59:04.189Z,13.43
2019-05-20T18:01:32.868Z,13.57
2019-05-20T18:04:01.010Z,12.30
2019-05-20T18:06:29.169Z,13.03
2019-05-20T18:09:00.390Z,16.57
2019-05-20T18:11:28.692Z,14.03
2019-05-20T18:13:56.812Z,14.00
2019-05-20T18:16:26.212Z,16.13
2019-05-20T18:18:54.453Z,14.93
2019-05-20T18:21:22.962Z,14.00
2019-05-20T18:23:51.801Z,13.33
2019-05-20T18:26:19.979Z,12.63
2019-05-20T18:28:48.334Z,14.20
2019-05-20T18:31:31.294Z,12.80
2019-05-20T18:33:47.094Z,11.93
2019-05-20T18:36:15.362Z,13.57
2019-05-20T18:38:43.802Z,13.10
2019-05-20T18:41:12.336Z,14.77
2019-05-20T18:43:40.995Z,12.60
2019-05-20T18:46:09.787Z,13.30
2019-05-20T18:48:37.907Z,11.03
2019-05-20T18:51:06.464Z,12.20
2019-05-20T18:53:34.601Z,13.20
2019-05-20T18:56:02.861Z,11.43
2019-05-20T18:58:31.447Z,16.37
2019-05-20T19:01:00.396Z,19.23
2019-05-20T19:03:29.055Z,20.47
2019-05-20T19:05:58.088Z,20.70
2019-05-20T19:08:26.482Z,23.33
2019-05-20T19:10:55.396Z,22.87
2019-05-20T19:13:23.584Z,20.73
2019-05-20T19:15:52.108Z,19.83
2019-05-20T19:18:22.077Z,21.63
2019-05-20T19:20:50.468Z,21.73
2019-05-20T19:23:18.906Z,23.47
2019-05-20T19:25:47.576Z,21.67
2019-05-20T19:28:15.741Z,26.03
2019-05-20T19:30:44.097Z,19.57
2019-05-20T19:33:14.180Z,18.93
2019-05-20T19:35:43.981Z,23.73
2019-05-20T19:38:12.487Z,24.60
2019-05-20T19:40:40.604Z,20.20
2019-05-20T19:43:08.780Z,21.13
2019-05-20T19:45:38.544Z,20.67
2019-05-20T19:48:07.389Z,22.30
2019-05-20T19:50:36.209Z,23.60
2019-05-20T19:53:04.576Z,20.10
2019-05-20T19:55:33.843Z,21.13
2019-05-20T19:58:02.007Z,22.07
2019-05-20T20:00:30.561Z,21.17
2019-05-20T20:02:58.911Z,21.50
2019-05-20T20:05:27.601Z,21.70
2019-05-20T20:07:56.871Z,24.57
2019-05-20T20:10:25.292Z,22.53
2019-05-20T20:12:53.823Z,25.43
2019-05-20T20:15:22.055Z,24.17
2019-05-20T20:17:50.220Z,23.93
2019-05-20T20:20:19.060Z,25.87
2019-05-20T20:22:47.427Z,35.40
2019-05-20T20:25:15.906Z,27.17
2019-05-20T20:27:44.402Z,26.43
2019-05-20T20:30:13.329Z,26.43
2019-05-20T20:32:41.814Z,28.77
2019-05-20T20:35:10.767Z,28.33
2019-05-20T20:37:39.495Z,28.83
2019-05-20T20:40:08.307Z,31.77
2019-05-20T20:42:36.464Z,25.93
2019-05-20T20:45:09.931Z,28.70
2019-05-20T20:47:41.919Z,28.30
2019-05-20T20:50:09.471Z,26.60
2019-05-20T20:52:39.163Z,29.37
2019-05-20T20:55:07.485Z,29.37
2019-05-20T20:57:35.644Z,28.77
2019-05-20T21:00:05.148Z,28.10
2019-05-20T21:02:33.366Z,32.13
2019-05-20T21:05:02.439Z,28.90
2019-05-20T21:07:30.688Z,29.60
2019-05-20T21:09:58.812Z,32.97
2019-05-20T21:12:27.385Z,27.73
2019-05-20T21:14:55.702Z,27.60
2019-05-20T21:17:23.956Z,28.67
2019-05-20T21:19:52.443Z,31.47
2019-05-20T21:22:20.795Z,28.93
2019-05-20T21:24:49.410Z,33.30
2019-05-20T21:27:18.110Z,33.37
2019-05-20T21:29:46.227Z,34.87
2019-05-20T21:32:15.135Z,28.43
2019-05-20T21:34:43.259Z,32.23
2019-05-20T21:37:11.781Z,29.17
2019-05-20T21:39:40.043Z,33.63
2019-05-20T21:42:08.199Z,36.23
2019-05-20T21:44:36.463Z,29.47
2019-05-20T21:47:04.733Z,32.93
2019-05-20T21:49:33.135Z,31.57
2019-05-20T21:52:01.279Z,35.23
2019-05-20T21:54:30.503Z,36.97
2019-05-20T21:56:58.612Z,37.10
2019-05-20T21:59:27.153Z,35.00
2019-05-20T22:01:55.601Z,34.33
2019-05-20T22:04:23.875Z,35.67
2019-05-20T22:06:51.994Z,35.30
2019-05-20T22:09:20.999Z,35.30
2019-05-20T22:11:49.575Z,29.70
2019-05-20T22:14:18.501Z,30.77
2019-05-20T22:16:46.988Z,31.63
2019-05-20T22:19:15.527Z,32.63
2019-05-20T22:21:50.922Z,36.77
2019-05-20T22:24:19.354Z,34.50
2019-05-20T22:26:47.783Z,34.37
2019-05-20T22:29:16.412Z,33.77
2019-05-20T22:31:45.816Z,28.53
2019-05-20T22:34:14.396Z,34.97
2019-05-20T22:36:42.686Z,38.47
2019-05-20T22:39:11.261Z,35.30
2019-05-20T22:41:39.416Z,35.77
2019-05-20T22:44:07.649Z,36.60
2019-05-20T22:46:36.283Z,40.80
2019-05-20T22:49:04.506Z,37.00
2019-05-20T22:51:33.158Z,35.90
2019-05-20T22:54:01.483Z,35.80
2019-05-20T22:56:29.789Z,37.93
2019-05-20T22:58:58.310Z,41.03
2019-05-20T23:01:26.498Z,34.37
2019-05-20T23:03:56.617Z,37.77
2019-05-20T23:06:25.159Z,37.73
2019-05-20T23:08:53.614Z,38.03
2019-05-20T23:11:22.139Z,36.23
2019-05-20T23:13:50.432Z,32.30
2019-05-20T23:16:19.300Z,34.23
2019-05-20T23:18:47.922Z,35.10
2019-05-20T23:21:16.376Z,34.73
2019-05-20T23:23:45.143Z,32.70
2019-05-20T23:26:13.975Z,37.10
2019-05-20T23:28:42.209Z,36.00
2019-05-20T23:31:10.477Z,34.93
2019-05-20T23:33:38.705Z,34.00
2019-05-20T23:36:07.216Z,41.73
2019-05-20T23:38:35.540Z,40.97
2019-05-20T23:41:04.245Z,38.70
2019-05-20T23:43:32.785Z,39.43
2019-05-20T23:46:01.239Z,39.10
2019-05-20T23:48:31.589Z,37.03
2019-05-20T23:51:00.065Z,35.63
2019-05-20T23:53:28.242Z,40.43
2019-05-20T23:55:56.664Z,39.17
2019-05-20T23:58:25.194Z,39.70
